Arthur Brusco — WDC3449 — position and weather

sailwx.info

Track history (hours):
 
Tides and Currents Weather Stations Pressure Air Temp Water Temp Dewpoint Dewpoint Depression Visibility Wind Speed Wind Dir Waves Ship Positions

Arthur Brusco

Owner: Brusco Tug & Barge, Inc, Longview, WA. More information available from US FCC via Universal Licensing System and Coast Guard Vessel Documentation Center.

Last reported at 2015-Jan-31 04:33 UTC. Time now 2015-Jan-31 05:35 UTC.
Position N 37°54' W 122°22'.

Length 35 m; draft 4.2 m.

Type: Towing. MMSI: 367008020.

Date/timePositionNaut miles runAvg speedWind from/ knotsBaromVisibWave heightAir tempDewpointWater temp
2015-Jan-31 04:33N 37°54' W 122°22'0 0.0
2015-Jan-31 03:33N 37°54' W 122°22'2 2.3
2015-Jan-31 02:34N 37°54' W 122°25'6 5.5
2015-Jan-31 01:33N 37°49' W 122°27'9 8.7
2015-Jan-31 00:33N 37°46' W 122°38'7 7.2
2015-Jan-30 23:33N 37°42' W 122°45'9 8.5
2015-Jan-30 22:33N 37°37' W 122°54'9 8.8
2015-Jan-30 21:33N 37°33' W 123°03'5 1.0
2015-Jan-30 16:21N 37°36' W 123°08'5 6.3
2015-Jan-30 15:33N 37°36' W 123°02'9 6.6
2015-Jan-30 14:13N 37°40' W 122°52'5 7.3
2015-Jan-30 13:31N 37°43' W 122°47'7 6.9
2015-Jan-30 12:33N 37°46' W 122°39'8 7.7
2015-Jan-30 11:33N 37°49' W 122°30'7 7.0
2015-Jan-30 10:33N 37°54' W 122°24'2 2.2
2015-Jan-30 09:33N 37°55' W 122°22'4 4.1
2015-Jan-30 08:33N 37°51' W 122°24'6 6.4
2015-Jan-30 07:33N 37°48' W 122°31'8 7.8
2015-Jan-30 06:33N 37°45' W 122°40'7 7.1
2015-Jan-30 05:33N 37°40' W 122°48'9 8.7
2015-Jan-30 04:33N 37°36' W 122°57'8 8.0
2015-Jan-30 03:33N 37°33' W 123°06'3 0.6
2015-Jan-29 22:14N 37°36' W 123°07'4 6.1
2015-Jan-29 21:33N 37°36' W 123°02'6 6.4
2015-Jan-29 20:33N 37°39' W 122°55'7 6.6
2015-Jan-29 19:33N 37°42' W 122°48'7 6.5
2015-Jan-29 18:32N 37°45' W 122°40'7 7.2
2015-Jan-29 17:33N 37°48' W 122°32'7 7.1
2015-Jan-29 16:33N 37°52' W 122°25'4 3.6
2015-Jan-29 15:33N 37°55' W 122°22'1 1.2
2015-Jan-29 14:33N 37°54' W 122°23'0 0.0
2015-Jan-29 13:33N 37°54' W 122°23'0 0.0
2015-Jan-29 12:33N 37°54' W 122°23'0 0.0
2015-Jan-29 11:33N 37°54' W 122°23'0 0.0
2015-Jan-29 10:33N 37°54' W 122°23'0 0.0
2015-Jan-29 09:33N 37°54' W 122°23'0 0.0
2015-Jan-29 08:33N 37°54' W 122°23'0 0.0
2015-Jan-29 07:33N 37°54' W 122°23'0 0.0
2015-Jan-29 06:33N 37°54' W 122°23'1 1.2
2015-Jan-29 05:33N 37°55' W 122°22'1 0.5
2015-Jan-29 04:33N 37°54' W 122°22'1 0.8
2015-Jan-29 03:33N 37°54' W 122°23'0 0.0
2015-Jan-29 02:33N 37°54' W 122°23'0 0.0
2015-Jan-29 01:33N 37°54' W 122°23'6 5.7
2015-Jan-29 00:33N 37°49' W 122°26'10 9.7
2015-Jan-28 23:33N 37°46' W 122°37'9 8.7
2015-Jan-28 22:33N 37°41' W 122°46'1010.4
2015-Jan-28 21:33N 37°35' W 122°57'11 9.6
2015-Jan-28 20:27N 37°34' W 123°11'910.2
2015-Jan-28 19:33N 37°37' W 123°21'1 0.9
2015-Jan-28 18:05N 37°38' W 123°20'5 9.2
2015-Jan-28 17:33N 37°37' W 123°14'10 9.6
2015-Jan-28 16:33N 37°36' W 123°02'9 9.4
2015-Jan-28 15:33N 37°41' W 122°52'9 9.4
2015-Jan-28 14:33N 37°46' W 122°42'9 8.6
2015-Jan-28 13:33N 37°48' W 122°31'6 6.4
2015-Jan-28 12:33N 37°52' W 122°25'3 3.0
2015-Jan-28 11:33N 37°54' W 122°22'4 3.9
2015-Jan-28 10:33N 37°51' W 122°24'8 8.2
2015-Jan-28 09:33N 37°47' W 122°34'8 8.0
2015-Jan-28 08:33N 37°43' W 122°42'10 9.6
2015-Jan-28 07:33N 37°38' W 122°52'10 9.7
2015-Jan-28 06:32N 37°33' W 123°03'19 9.7
2015-Jan-28 04:32N 37°38' W 123°26'5 4.2
2015-Jan-28 03:14N 37°38' W 123°20'6 8.1
2015-Jan-28 02:33N 37°37' W 123°13'8 8.1
2015-Jan-28 01:33N 37°36' W 123°02'10 7.8
2015-Jan-28 00:20N 37°40' W 122°52'6 7.7
2015-Jan-27 23:30N 37°43' W 122°45'7 7.1
2015-Jan-27 22:33N 37°46' W 122°37'8 8.2
2015-Jan-27 21:33N 37°49' W 122°28'6 6.1
2015-Jan-27 20:33N 37°54' W 122°23'1 1.0
2015-Jan-27 19:33N 37°54' W 122°24'3 3.4
2015-Jan-27 18:33N 37°51' W 122°24'6 6.4
2015-Jan-27 17:33N 37°48' W 122°31'8 7.7
2015-Jan-27 16:33N 37°45' W 122°40'9 8.9
2015-Jan-27 15:33N 37°39' W 122°49'1010.0
2015-Jan-27 14:33N 37°34' W 122°60'10 9.6
2015-Jan-27 13:33N 37°35' W 123°12'1010.1
2015-Jan-27 12:33N 37°38' W 123°24'1 0.8
2015-Jan-27 11:32N 37°38' W 123°24'8 8.6
2015-Jan-27 10:33N 37°37' W 123°14'9 8.6
2015-Jan-27 09:33N 37°36' W 123°03'8 8.2
2015-Jan-27 08:33N 37°40' W 122°54'9 8.8
2015-Jan-27 07:33N 37°44' W 122°44'8 8.4
2015-Jan-27 06:33N 37°47' W 122°34'9 9.0
2015-Jan-27 05:33N 37°52' W 122°25'3 2.7
2015-Jan-27 04:33N 37°54' W 122°23'0 0.0
2015-Jan-27 03:33N 37°54' W 122°23'0 0.0
2015-Jan-27 02:33N 37°54' W 122°23'0 0.0
2015-Jan-27 01:33N 37°54' W 122°23'0 0.0
2015-Jan-27 00:33N 37°54' W 122°23'0 0.0
2015-Jan-26 23:33N 37°54' W 122°23'0 0.0
2015-Jan-26 22:33N 37°54' W 122°23'0 0.0
2015-Jan-26 21:33N 37°54' W 122°23'0 0.0
2015-Jan-26 20:33N 37°54' W 122°23'1 0.9
2015-Jan-26 19:33N 37°54' W 122°22'1 1.2
2015-Jan-26 18:33N 37°54' W 122°24'2 2.3
2015-Jan-26 17:33N 37°52' W 122°24'5 5.5
2015-Jan-26 16:33N 37°49' W 122°30'6 5.6
2015-Jan-26 15:33N 37°46' W 122°36'6 6.3
2015-Jan-26 14:33N 37°43' W 122°43'7 7.1
2015-Jan-26 13:33N 37°39' W 122°50'9 8.6
2015-Jan-26 12:33N 37°34' W 122°59'7 6.9
2015-Jan-26 11:33N 37°34' W 123°08'8 8.5
2015-Jan-26 10:33N 37°36' W 123°18'9 8.7
2015-Jan-26 09:33N 37°39' W 123°29'4 4.2
2015-Jan-26 08:33N 37°38' W 123°23'7 6.6
2015-Jan-26 07:33N 37°37' W 123°15'7 6.5
2015-Jan-26 06:33N 37°36' W 123°07'6 6.2
2015-Jan-26 05:33N 37°37' W 122°59'6 6.3
2015-Jan-26 04:33N 37°40' W 122°52'6 6.3
2015-Jan-26 03:32N 37°43' W 122°45'6 6.4
2015-Jan-26 02:33N 37°46' W 122°38'7 7.5
2015-Jan-26 01:33N 37°49' W 122°29'5 5.3
2015-Jan-26 00:33N 37°53' W 122°25'2 2.4
2015-Jan-25 23:34N 37°54' W 122°22'1 0.8
2015-Jan-25 22:33N 37°54' W 122°23'0 0.0
2015-Jan-25 21:33N 37°54' W 122°23'0 0.0
2015-Jan-25 20:33N 37°54' W 122°23'0 0.0
2015-Jan-25 19:33N 37°54' W 122°23'0 0.0
2015-Jan-25 18:33N 37°54' W 122°23'0 0.0
2015-Jan-25 17:33N 37°54' W 122°23'0 0.0
2015-Jan-25 16:33N 37°54' W 122°23'0 0.0
2015-Jan-25 15:33N 37°54' W 122°23'0 0.0
2015-Jan-25 14:33N 37°54' W 122°23'0 0.0
2015-Jan-25 13:33N 37°54' W 122°23'0 0.0
2015-Jan-25 12:33N 37°54' W 122°23'0 0.0
2015-Jan-25 11:33N 37°54' W 122°23'2 2.1
2015-Jan-25 10:33N 37°52' W 122°24'7 6.6
2015-Jan-25 09:33N 37°48' W 122°31'9 9.2
2015-Jan-25 08:33N 37°44' W 122°41'8 7.9
2015-Jan-25 07:33N 37°39' W 122°49'9 9.5
2015-Jan-25 06:33N 37°34' W 122°59'9 8.9
2015-Jan-25 05:33N 37°34' W 123°10'10 9.6
2015-Jan-25 04:33N 37°37' W 123°22'5 4.7
2015-Jan-25 03:33N 37°39' W 123°27'6 6.2
2015-Jan-25 02:33N 37°38' W 123°20'6 6.1
2015-Jan-25 01:33N 37°37' W 123°12'6 6.2
2015-Jan-25 00:33N 37°36' W 123°04'7 6.5
2015-Jan-24 23:33N 37°38' W 122°57'7 6.7
2015-Jan-24 22:30N 37°42' W 122°49'7 6.7
2015-Jan-24 21:31N 37°46' W 122°42'6 6.5
2015-Jan-24 20:33N 37°47' W 122°35'6 5.9
2015-Jan-24 19:33N 37°49' W 122°28'6 6.0
2015-Jan-24 18:33N 37°54' W 122°24'4 4.3
2015-Jan-24 17:33N 37°50' W 122°24'4 3.7
2015-Jan-24 16:33N 37°46' W 122°23'0 0.0
2015-Jan-24 15:33N 37°46' W 122°23'0 0.0
2015-Jan-24 14:33N 37°46' W 122°23'2 2.1
2015-Jan-24 13:33N 37°49' W 122°23'6 5.9
2015-Jan-24 12:33N 37°54' W 122°22'0 0.0
2015-Jan-24 11:33N 37°54' W 122°22'0 0.0
2015-Jan-24 10:33N 37°54' W 122°22'0 0.0
2015-Jan-24 09:33N 37°54' W 122°22'0 0.0
2015-Jan-24 08:33N 37°54' W 122°22'0 0.0
2015-Jan-24 07:33N 37°54' W 122°22'0 0.0
2015-Jan-24 06:33N 37°54' W 122°22'0 0.0
2015-Jan-24 05:33N 37°54' W 122°22'0 0.0
2015-Jan-24 04:33N 37°54' W 122°22'0 0.0
2015-Jan-24 03:33N 37°54' W 122°22'0 0.0
2015-Jan-24 02:33N 37°54' W 122°22'0 0.0
2015-Jan-24 01:33N 37°54' W 122°22'0 0.0
2015-Jan-24 00:33N 37°54' W 122°22'1 1.2
2015-Jan-23 23:33N 37°54' W 122°24'4 4.4
2015-Jan-23 22:33N 37°58' W 122°26'9 8.7
2015-Jan-23 21:33N 38°03' W 122°16'6 6.0
2015-Jan-23 20:33N 38°02' W 122°09'5 4.8
2015-Jan-23 19:33N 38°04' W 122°15'5 5.5
2015-Jan-23 18:33N 38°02' W 122°21'8 7.6
2015-Jan-23 17:33N 37°55' W 122°25'1 0.5
2015-Jan-23 16:33N 37°55' W 122°25'9 9.4
2015-Jan-23 15:33N 38°03' W 122°18'10 9.6
2015-Jan-23 14:33N 38°03' W 122°06'9 8.4
2015-Jan-23 13:27N 38°03' W 121°54'3 3.1
2015-Jan-23 12:33N 38°04' W 121°51'1 0.7
2015-Jan-23 10:33N 38°03' W 121°53'2 1.5
2015-Jan-23 09:25N 38°03' W 121°55'15 6.4
2015-Jan-23 07:04N 38°04' W 122°13'5 6.2
2015-Jan-23 06:12N 38°03' W 122°20'4 6.6
2015-Jan-23 05:33N 38°00' W 122°25'6 5.7
2015-Jan-23 04:33N 37°54' W 122°24'0 0.4
2015-Jan-23 03:33N 37°54' W 122°23'0 0.0
2015-Jan-23 02:33N 37°54' W 122°23'0 0.0
2015-Jan-23 01:33N 37°54' W 122°23'1 1.2
2015-Jan-23 00:33N 37°54' W 122°25'10 8.9
2015-Jan-22 23:28N 38°03' W 122°19'9 9.0
2015-Jan-22 22:30N 38°02' W 122°08'4 0.8
2015-Jan-22 17:13N 38°04' W 122°13'7 6.4
2015-Jan-22 16:09N 38°02' W 122°21'4 7.1
2015-Jan-22 15:33N 37°59' W 122°25'6 5.6
2015-Jan-22 14:33N 37°54' W 122°22'3 2.5
2015-Jan-22 13:33N 37°55' W 122°25'9 8.6
2015-Jan-22 12:32N 38°03' W 122°20'9 8.8
2015-Jan-22 11:32N 38°02' W 122°09'2 0.3
2015-Jan-22 05:09N 38°03' W 122°11'3 4.8
2015-Jan-22 04:33N 38°04' W 122°14'6 4.6
2015-Jan-22 03:12N 38°02' W 122°22'3 4.6
2015-Jan-22 02:33N 37°60' W 122°25'5 4.5
2015-Jan-22 01:33N 37°55' W 122°25'3 2.7
2015-Jan-22 00:33N 37°54' W 122°22'0 0.2
2015-Jan-21 23:33N 37°54' W 122°22'0 0.0
2015-Jan-21 22:50N 37°54' W 122°22'0 0.0
2015-Jan-21 22:46N 37°54' W 122°22'0 0.0
2015-Jan-21 22:33N 37°54' W 122°22'0 0.0
2015-Jan-21 21:33N 37°54' W 122°22'0 0.0
2015-Jan-21 20:33N 37°54' W 122°22'0 0.0
2015-Jan-21 19:33N 37°54' W 122°22'0 0.0
2015-Jan-21 18:33N 37°54' W 122°22'0 0.0
2015-Jan-21 17:33N 37°54' W 122°22'0 0.0
2015-Jan-21 16:33N 37°54' W 122°22'0 0.0
2015-Jan-21 15:33N 37°54' W 122°22'0 0.0
2015-Jan-21 14:33N 37°54' W 122°22'0 0.0
2015-Jan-21 13:33N 37°54' W 122°22'0 0.0
2015-Jan-21 12:33N 37°54' W 122°22'0 0.0
2015-Jan-21 11:33N 37°54' W 122°22'0 0.0
2015-Jan-21 10:33N 37°54' W 122°22'0 0.0
2015-Jan-21 09:33N 37°54' W 122°22'0 0.0
2015-Jan-21 08:33N 37°54' W 122°22'0 0.0
2015-Jan-21 07:33N 37°54' W 122°22'0 0.4
2015-Jan-21 06:33N 37°54' W 122°23'4 4.4
2015-Jan-21 05:33N 37°58' W 122°26'  
Track history (hours):
 
Tides and Currents Weather Stations Pressure Air Temp Water Temp Dewpoint Dewpoint Depression Visibility Wind Speed Wind Dir Waves Ship Positions

Arthur Brusco

Owner: Brusco Tug & Barge, Inc, Longview, WA. More information available from US FCC via Universal Licensing System and Coast Guard Vessel Documentation Center.

Last reported at 2015-Jan-31 04:33 UTC. Time now 2015-Jan-31 05:35 UTC.
Position N 37°54' W 122°22'.

Length 35 m; draft 4.2 m.

Type: Towing. MMSI: 367008020.

Date/timePositionNaut miles runAvg speedWind from/ knotsBaromVisibWave heightAir tempDewpointWater temp
2015-Jan-31 04:33N 37°54' W 122°22'0 0.0
2015-Jan-31 03:33N 37°54' W 122°22'2 2.3
2015-Jan-31 02:34N 37°54' W 122°25'6 5.5
2015-Jan-31 01:33N 37°49' W 122°27'9 8.7
2015-Jan-31 00:33N 37°46' W 122°38'7 7.2
2015-Jan-30 23:33N 37°42' W 122°45'9 8.5
2015-Jan-30 22:33N 37°37' W 122°54'9 8.8
2015-Jan-30 21:33N 37°33' W 123°03'5 1.0
2015-Jan-30 16:21N 37°36' W 123°08'5 6.3
2015-Jan-30 15:33N 37°36' W 123°02'9 6.6
2015-Jan-30 14:13N 37°40' W 122°52'5 7.3
2015-Jan-30 13:31N 37°43' W 122°47'7 6.9
2015-Jan-30 12:33N 37°46' W 122°39'8 7.7
2015-Jan-30 11:33N 37°49' W 122°30'7 7.0
2015-Jan-30 10:33N 37°54' W 122°24'2 2.2
2015-Jan-30 09:33N 37°55' W 122°22'4 4.1
2015-Jan-30 08:33N 37°51' W 122°24'6 6.4
2015-Jan-30 07:33N 37°48' W 122°31'8 7.8
2015-Jan-30 06:33N 37°45' W 122°40'7 7.1
2015-Jan-30 05:33N 37°40' W 122°48'9 8.7
2015-Jan-30 04:33N 37°36' W 122°57'8 8.0
2015-Jan-30 03:33N 37°33' W 123°06'3 0.6
2015-Jan-29 22:14N 37°36' W 123°07'4 6.1
2015-Jan-29 21:33N 37°36' W 123°02'6 6.4
2015-Jan-29 20:33N 37°39' W 122°55'7 6.6
2015-Jan-29 19:33N 37°42' W 122°48'7 6.5
2015-Jan-29 18:32N 37°45' W 122°40'7 7.2
2015-Jan-29 17:33N 37°48' W 122°32'7 7.1
2015-Jan-29 16:33N 37°52' W 122°25'4 3.6
2015-Jan-29 15:33N 37°55' W 122°22'1 1.2
2015-Jan-29 14:33N 37°54' W 122°23'0 0.0
2015-Jan-29 13:33N 37°54' W 122°23'0 0.0
2015-Jan-29 12:33N 37°54' W 122°23'0 0.0
2015-Jan-29 11:33N 37°54' W 122°23'0 0.0
2015-Jan-29 10:33N 37°54' W 122°23'0 0.0
2015-Jan-29 09:33N 37°54' W 122°23'0 0.0
2015-Jan-29 08:33N 37°54' W 122°23'0 0.0
2015-Jan-29 07:33N 37°54' W 122°23'0 0.0
2015-Jan-29 06:33N 37°54' W 122°23'1 1.2
2015-Jan-29 05:33N 37°55' W 122°22'1 0.5
2015-Jan-29 04:33N 37°54' W 122°22'1 0.8
2015-Jan-29 03:33N 37°54' W 122°23'0 0.0
2015-Jan-29 02:33N 37°54' W 122°23'0 0.0
2015-Jan-29 01:33N 37°54' W 122°23'6 5.7
2015-Jan-29 00:33N 37°49' W 122°26'10 9.7
2015-Jan-28 23:33N 37°46' W 122°37'9 8.7
2015-Jan-28 22:33N 37°41' W 122°46'1010.4
2015-Jan-28 21:33N 37°35' W 122°57'11 9.6
2015-Jan-28 20:27N 37°34' W 123°11'910.2
2015-Jan-28 19:33N 37°37' W 123°21'1 0.9
2015-Jan-28 18:05N 37°38' W 123°20'5 9.2
2015-Jan-28 17:33N 37°37' W 123°14'10 9.6
2015-Jan-28 16:33N 37°36' W 123°02'9 9.4
2015-Jan-28 15:33N 37°41' W 122°52'9 9.4
2015-Jan-28 14:33N 37°46' W 122°42'9 8.6
2015-Jan-28 13:33N 37°48' W 122°31'6 6.4
2015-Jan-28 12:33N 37°52' W 122°25'3 3.0
2015-Jan-28 11:33N 37°54' W 122°22'4 3.9
2015-Jan-28 10:33N 37°51' W 122°24'8 8.2
2015-Jan-28 09:33N 37°47' W 122°34'8 8.0
2015-Jan-28 08:33N 37°43' W 122°42'10 9.6
2015-Jan-28 07:33N 37°38' W 122°52'10 9.7
2015-Jan-28 06:32N 37°33' W 123°03'19 9.7
2015-Jan-28 04:32N 37°38' W 123°26'5 4.2
2015-Jan-28 03:14N 37°38' W 123°20'6 8.1
2015-Jan-28 02:33N 37°37' W 123°13'8 8.1
2015-Jan-28 01:33N 37°36' W 123°02'10 7.8
2015-Jan-28 00:20N 37°40' W 122°52'6 7.7
2015-Jan-27 23:30N 37°43' W 122°45'7 7.1
2015-Jan-27 22:33N 37°46' W 122°37'8 8.2
2015-Jan-27 21:33N 37°49' W 122°28'6 6.1
2015-Jan-27 20:33N 37°54' W 122°23'1 1.0
2015-Jan-27 19:33N 37°54' W 122°24'3 3.4
2015-Jan-27 18:33N 37°51' W 122°24'6 6.4
2015-Jan-27 17:33N 37°48' W 122°31'8 7.7
2015-Jan-27 16:33N 37°45' W 122°40'9 8.9
2015-Jan-27 15:33N 37°39' W 122°49'1010.0
2015-Jan-27 14:33N 37°34' W 122°60'10 9.6
2015-Jan-27 13:33N 37°35' W 123°12'1010.1
2015-Jan-27 12:33N 37°38' W 123°24'1 0.8
2015-Jan-27 11:32N 37°38' W 123°24'8 8.6
2015-Jan-27 10:33N 37°37' W 123°14'9 8.6
2015-Jan-27 09:33N 37°36' W 123°03'8 8.2
2015-Jan-27 08:33N 37°40' W 122°54'9 8.8
2015-Jan-27 07:33N 37°44' W 122°44'8 8.4
2015-Jan-27 06:33N 37°47' W 122°34'9 9.0
2015-Jan-27 05:33N 37°52' W 122°25'3 2.7
2015-Jan-27 04:33N 37°54' W 122°23'0 0.0
2015-Jan-27 03:33N 37°54' W 122°23'0 0.0
2015-Jan-27 02:33N 37°54' W 122°23'0 0.0
2015-Jan-27 01:33N 37°54' W 122°23'0 0.0
2015-Jan-27 00:33N 37°54' W 122°23'0 0.0
2015-Jan-26 23:33N 37°54' W 122°23'0 0.0
2015-Jan-26 22:33N 37°54' W 122°23'0 0.0
2015-Jan-26 21:33N 37°54' W 122°23'0 0.0
2015-Jan-26 20:33N 37°54' W 122°23'1 0.9
2015-Jan-26 19:33N 37°54' W 122°22'1 1.2
2015-Jan-26 18:33N 37°54' W 122°24'2 2.3
2015-Jan-26 17:33N 37°52' W 122°24'5 5.5
2015-Jan-26 16:33N 37°49' W 122°30'6 5.6
2015-Jan-26 15:33N 37°46' W 122°36'6 6.3
2015-Jan-26 14:33N 37°43' W 122°43'7 7.1
2015-Jan-26 13:33N 37°39' W 122°50'9 8.6
2015-Jan-26 12:33N 37°34' W 122°59'7 6.9
2015-Jan-26 11:33N 37°34' W 123°08'8 8.5
2015-Jan-26 10:33N 37°36' W 123°18'9 8.7
2015-Jan-26 09:33N 37°39' W 123°29'4 4.2
2015-Jan-26 08:33N 37°38' W 123°23'7 6.6
2015-Jan-26 07:33N 37°37' W 123°15'7 6.5
2015-Jan-26 06:33N 37°36' W 123°07'6 6.2
2015-Jan-26 05:33N 37°37' W 122°59'6 6.3
2015-Jan-26 04:33N 37°40' W 122°52'6 6.3
2015-Jan-26 03:32N 37°43' W 122°45'6 6.4
2015-Jan-26 02:33N 37°46' W 122°38'7 7.5
2015-Jan-26 01:33N 37°49' W 122°29'5 5.3
2015-Jan-26 00:33N 37°53' W 122°25'2 2.4
2015-Jan-25 23:34N 37°54' W 122°22'1 0.8
2015-Jan-25 22:33N 37°54' W 122°23'0 0.0
2015-Jan-25 21:33N 37°54' W 122°23'0 0.0
2015-Jan-25 20:33N 37°54' W 122°23'0 0.0
2015-Jan-25 19:33N 37°54' W 122°23'0 0.0
2015-Jan-25 18:33N 37°54' W 122°23'0 0.0
2015-Jan-25 17:33N 37°54' W 122°23'0 0.0
2015-Jan-25 16:33N 37°54' W 122°23'0 0.0
2015-Jan-25 15:33N 37°54' W 122°23'0 0.0
2015-Jan-25 14:33N 37°54' W 122°23'0 0.0
2015-Jan-25 13:33N 37°54' W 122°23'0 0.0
2015-Jan-25 12:33N 37°54' W 122°23'0 0.0
2015-Jan-25 11:33N 37°54' W 122°23'2 2.1
2015-Jan-25 10:33N 37°52' W 122°24'7 6.6
2015-Jan-25 09:33N 37°48' W 122°31'9 9.2
2015-Jan-25 08:33N 37°44' W 122°41'8 7.9
2015-Jan-25 07:33N 37°39' W 122°49'9 9.5
2015-Jan-25 06:33N 37°34' W 122°59'9 8.9
2015-Jan-25 05:33N 37°34' W 123°10'10 9.6
2015-Jan-25 04:33N 37°37' W 123°22'5 4.7
2015-Jan-25 03:33N 37°39' W 123°27'6 6.2
2015-Jan-25 02:33N 37°38' W 123°20'6 6.1
2015-Jan-25 01:33N 37°37' W 123°12'6 6.2
2015-Jan-25 00:33N 37°36' W 123°04'7 6.5
2015-Jan-24 23:33N 37°38' W 122°57'7 6.7
2015-Jan-24 22:30N 37°42' W 122°49'7 6.7
2015-Jan-24 21:31N 37°46' W 122°42'6 6.5
2015-Jan-24 20:33N 37°47' W 122°35'6 5.9
2015-Jan-24 19:33N 37°49' W 122°28'6 6.0
2015-Jan-24 18:33N 37°54' W 122°24'4 4.3
2015-Jan-24 17:33N 37°50' W 122°24'4 3.7
2015-Jan-24 16:33N 37°46' W 122°23'0 0.0
2015-Jan-24 15:33N 37°46' W 122°23'0 0.0
2015-Jan-24 14:33N 37°46' W 122°23'2 2.1
2015-Jan-24 13:33N 37°49' W 122°23'6 5.9
2015-Jan-24 12:33N 37°54' W 122°22'0 0.0
2015-Jan-24 11:33N 37°54' W 122°22'0 0.0
2015-Jan-24 10:33N 37°54' W 122°22'0 0.0
2015-Jan-24 09:33N 37°54' W 122°22'0 0.0
2015-Jan-24 08:33N 37°54' W 122°22'0 0.0
2015-Jan-24 07:33N 37°54' W 122°22'0 0.0
2015-Jan-24 06:33N 37°54' W 122°22'0 0.0
2015-Jan-24 05:33N 37°54' W 122°22'0 0.0
2015-Jan-24 04:33N 37°54' W 122°22'0 0.0
2015-Jan-24 03:33N 37°54' W 122°22'0 0.0
2015-Jan-24 02:33N 37°54' W 122°22'0 0.0
2015-Jan-24 01:33N 37°54' W 122°22'0 0.0
2015-Jan-24 00:33N 37°54' W 122°22'1 1.2
2015-Jan-23 23:33N 37°54' W 122°24'4 4.4
2015-Jan-23 22:33N 37°58' W 122°26'9 8.7
2015-Jan-23 21:33N 38°03' W 122°16'6 6.0
2015-Jan-23 20:33N 38°02' W 122°09'5 4.8
2015-Jan-23 19:33N 38°04' W 122°15'5 5.5
2015-Jan-23 18:33N 38°02' W 122°21'8 7.6
2015-Jan-23 17:33N 37°55' W 122°25'1 0.5
2015-Jan-23 16:33N 37°55' W 122°25'9 9.4
2015-Jan-23 15:33N 38°03' W 122°18'10 9.6
2015-Jan-23 14:33N 38°03' W 122°06'9 8.4
2015-Jan-23 13:27N 38°03' W 121°54'3 3.1
2015-Jan-23 12:33N 38°04' W 121°51'1 0.7
2015-Jan-23 10:33N 38°03' W 121°53'2 1.5
2015-Jan-23 09:25N 38°03' W 121°55'15 6.4
2015-Jan-23 07:04N 38°04' W 122°13'5 6.2
2015-Jan-23 06:12N 38°03' W 122°20'4 6.6
2015-Jan-23 05:33N 38°00' W 122°25'6 5.7
2015-Jan-23 04:33N 37°54' W 122°24'0 0.4
2015-Jan-23 03:33N 37°54' W 122°23'0 0.0
2015-Jan-23 02:33N 37°54' W 122°23'0 0.0
2015-Jan-23 01:33N 37°54' W 122°23'1 1.2
2015-Jan-23 00:33N 37°54' W 122°25'10 8.9
2015-Jan-22 23:28N 38°03' W 122°19'9 9.0
2015-Jan-22 22:30N 38°02' W 122°08'4 0.8
2015-Jan-22 17:13N 38°04' W 122°13'7 6.4
2015-Jan-22 16:09N 38°02' W 122°21'4 7.1
2015-Jan-22 15:33N 37°59' W 122°25'6 5.6
2015-Jan-22 14:33N 37°54' W 122°22'3 2.5
2015-Jan-22 13:33N 37°55' W 122°25'9 8.6
2015-Jan-22 12:32N 38°03' W 122°20'9 8.8
2015-Jan-22 11:32N 38°02' W 122°09'2 0.3
2015-Jan-22 05:09N 38°03' W 122°11'3 4.8
2015-Jan-22 04:33N 38°04' W 122°14'6 4.6
2015-Jan-22 03:12N 38°02' W 122°22'3 4.6
2015-Jan-22 02:33N 37°60' W 122°25'5 4.5
2015-Jan-22 01:33N 37°55' W 122°25'3 2.7
2015-Jan-22 00:33N 37°54' W 122°22'0 0.2
2015-Jan-21 23:33N 37°54' W 122°22'0 0.0
2015-Jan-21 22:50N 37°54' W 122°22'0 0.0
2015-Jan-21 22:46N 37°54' W 122°22'0 0.0
2015-Jan-21 22:33N 37°54' W 122°22'0 0.0
2015-Jan-21 21:33N 37°54' W 122°22'0 0.0
2015-Jan-21 20:33N 37°54' W 122°22'0 0.0
2015-Jan-21 19:33N 37°54' W 122°22'0 0.0
2015-Jan-21 18:33N 37°54' W 122°22'0 0.0
2015-Jan-21 17:33N 37°54' W 122°22'0 0.0
2015-Jan-21 16:33N 37°54' W 122°22'0 0.0
2015-Jan-21 15:33N 37°54' W 122°22'0 0.0
2015-Jan-21 14:33N 37°54' W 122°22'0 0.0
2015-Jan-21 13:33N 37°54' W 122°22'0 0.0
2015-Jan-21 12:33N 37°54' W 122°22'0 0.0
2015-Jan-21 11:33N 37°54' W 122°22'0 0.0
2015-Jan-21 10:33N 37°54' W 122°22'0 0.0
2015-Jan-21 09:33N 37°54' W 122°22'0 0.0
2015-Jan-21 08:33N 37°54' W 122°22'0 0.0
2015-Jan-21 07:33N 37°54' W 122°22'0 0.4
2015-Jan-21 06:33N 37°54' W 122°23'4 4.4
2015-Jan-21 05:33N 37°58' W 122°26'  

Dump ship's entire track history